sensor_id;sensor_type;location;lat;lon;timestamp;pressure;altitude;pressure_sealevel;temperature;humidity
7586;BME280;12459;42.646;23.292;2023-05-21T00:06:47;93468.91;;;14.57;100.00
7586;BME280;12459;42.646;23.292;2023-05-21T00:21:49;93536.16;;;14.48;100.00
7586;BME280;12459;42.646;23.292;2023-05-21T00:36:51;93444.16;;;14.46;100.00
7586;BME280;12459;42.646;23.292;2023-05-21T00:51:54;93283.94;;;13.00;100.00
7586;BME280;12459;42.646;23.292;2023-05-21T01:06:56;93282.88;;;12.53;100.00
7586;BME280;12459;42.646;23.292;2023-05-21T01:22:06;93552.88;;;14.85;100.00
7586;BME280;12459;42.646;23.292;2023-05-21T01:37:16;93408.69;;;13.52;100.00
7586;BME280;12459;42.646;23.292;2023-05-21T01:52:20;93387.75;;;13.72;100.00
7586;BME280;12459;42.646;23.292;2023-05-21T02:07:22;93245.38;;;12.91;100.00
7586;BME280;12459;42.646;23.292;2023-05-21T02:22:25;93427.16;;;13.66;100.00
7586;BME280;12459;42.646;23.292;2023-05-21T02:37:26;93388.75;;;13.49;100.00
7586;BME280;12459;42.646;23.292;2023-05-21T02:52:28;93188.47;;;12.34;100.00
7586;BME280;12459;42.646;23.292;2023-05-21T03:07:30;93173.91;;;12.19;100.00
7586;BME280;12459;42.646;23.292;2023-05-21T03:22:32;93523.19;;;14.72;100.00
7586;BME280;12459;42.646;23.292;2023-05-21T03:37:34;93391.88;;;13.77;100.00
7586;BME280;12459;42.646;23.292;2023-05-21T03:52:36;93421.88;;;14.04;100.00
7586;BME280;12459;42.646;23.292;2023-05-21T04:07:38;93266.94;;;13.32;100.00
7586;BME280;12459;42.646;23.292;2023-05-21T04:22:39;93540.53;;;15.34;100.00
7586;BME280;12459;42.646;23.292;2023-05-21T04:37:42;93543.16;;;15.25;100.00
7586;BME280;12459;42.646;23.292;2023-05-21T04:52:46;93532.78;;;15.37;100.00
7586;BME280;12459;42.646;23.292;2023-05-21T05:07:48;93412.69;;;14.68;100.00
7586;BME280;12459;42.646;23.292;2023-05-21T05:22:50;93430.25;;;15.80;97.78
7586;BME280;12459;42.646;23.292;2023-05-21T05:37:51;93129.25;;;14.41;93.94
7586;BME280;12459;42.646;23.292;2023-05-21T05:52:53;93190.84;;;14.99;90.75
7586;BME280;12459;42.646;23.292;2023-05-21T06:07:55;93514.09;;;17.57;88.74
7586;BME280;12459;42.646;23.292;2023-05-21T06:22:57;93371.38;;;17.45;87.08
7586;BME280;12459;42.646;23.292;2023-05-21T06:37:58;93536.69;;;19.00;80.18
7586;BME280;12459;42.646;23.292;2023-05-21T06:53:00;93276.72;;;17.14;80.51
7586;BME280;12459;42.646;23.292;2023-05-21T07:08:02;93304.22;;;17.58;79.40
7586;BME280;12459;42.646;23.292;2023-05-21T07:23:03;93410.00;;;18.88;75.62
7586;BME280;12459;42.646;23.292;2023-05-21T07:38:05;93443.75;;;19.53;75.15
7586;BME280;12459;42.646;23.292;2023-05-21T07:53:07;93585.53;;;19.94;73.05
7586;BME280;12459;42.646;23.292;2023-05-21T08:08:09;93372.50;;;19.25;71.55
7586;BME280;12459;42.646;23.292;2023-05-21T08:23:12;93335.34;;;18.84;67.31
7586;BME280;12459;42.646;23.292;2023-05-21T08:38:14;93264.94;;;18.14;62.92
7586;BME280;12459;42.646;23.292;2023-05-21T08:53:17;93407.72;;;19.20;64.40
7586;BME280;12459;42.646;23.292;2023-05-21T09:08:31;93483.06;;;20.29;66.29
7586;BME280;12459;42.646;23.292;2023-05-21T09:23:35;93408.34;;;19.62;64.88
7586;BME280;12459;42.646;23.292;2023-05-21T09:38:37;93448.00;;;20.46;57.52
7586;BME280;12459;42.646;23.292;2023-05-21T09:53:55;93437.69;;;20.65;54.37
7586;BME280;12459;42.646;23.292;2023-05-21T10:09:01;93423.56;;;20.96;55.17
7586;BME280;12459;42.646;23.292;2023-05-21T10:24:07;93386.59;;;21.10;51.84
7586;BME280;12459;42.646;23.292;2023-05-21T10:39:11;93429.59;;;20.70;52.16
7586;BME280;12459;42.646;23.292;2023-05-21T11:09:53;93416.81;;;20.32;56.72
7586;BME280;12459;42.646;23.292;2023-05-21T11:25:00;93393.72;;;20.13;58.43
7586;BME280;12459;42.646;23.292;2023-05-21T11:40:18;93423.56;;;20.37;56.04
7586;BME280;12459;42.646;23.292;2023-05-21T11:55:21;93246.06;;;19.00;58.08
7586;BME280;12459;42.646;23.292;2023-05-21T12:10:23;92900.84;;;16.37;58.16
7586;BME280;12459;42.646;23.292;2023-05-21T12:25:25;93332.97;;;19.24;61.01
7586;BME280;12459;42.646;23.292;2023-05-21T12:40:36;93398.72;;;19.76;64.32
7586;BME280;12459;42.646;23.292;2023-05-21T12:55:40;93244.13;;;18.77;66.81
7586;BME280;12459;42.646;23.292;2023-05-21T13:10:42;93344.09;;;19.50;68.10
7586;BME280;12459;42.646;23.292;2023-05-21T13:25:44;93362.47;;;19.94;70.65
7586;BME280;12459;42.646;23.292;2023-05-21T13:40:45;93304.94;;;19.71;67.90
7586;BME280;12459;42.646;23.292;2023-05-21T13:55:47;93066.53;;;18.30;65.57
7586;BME280;12459;42.646;23.292;2023-05-21T14:10:49;93291.00;;;19.79;67.02
7586;BME280;12459;42.646;23.292;2023-05-21T14:25:52;93392.88;;;20.36;67.18
7586;BME280;12459;42.646;23.292;2023-05-21T14:40:54;93171.44;;;19.10;65.85
7586;BME280;12459;42.646;23.292;2023-05-21T14:55:56;93251.75;;;19.41;66.61
7586;BME280;12459;42.646;23.292;2023-05-21T15:10:57;93418.22;;;19.74;76.02
7586;BME280;12459;42.646;23.292;2023-05-21T15:25:59;93374.63;;;19.45;77.94
7586;BME280;12459;42.646;23.292;2023-05-21T15:41:01;93302.75;;;18.50;78.97
7586;BME280;12459;42.646;23.292;2023-05-21T15:56:03;93279.16;;;18.66;79.71
7586;BME280;12459;42.646;23.292;2023-05-21T16:11:05;93398.91;;;19.49;67.46
7586;BME280;12459;42.646;23.292;2023-05-21T16:26:08;93342.13;;;19.12;66.72
7586;BME280;12459;42.646;23.292;2023-05-21T16:41:10;93388.94;;;19.07;67.29
7586;BME280;12459;42.646;23.292;2023-05-21T16:56:12;93349.19;;;18.52;67.07
7586;BME280;12459;42.646;23.292;2023-05-21T17:11:15;93312.81;;;18.26;67.29
7586;BME280;12459;42.646;23.292;2023-05-21T17:26:17;93413.97;;;18.69;68.66
7586;BME280;12459;42.646;23.292;2023-05-21T17:41:19;93348.91;;;17.99;67.93
7586;BME280;12459;42.646;23.292;2023-05-21T17:56:22;93348.19;;;17.62;70.20
7586;BME280;12459;42.646;23.292;2023-05-21T18:11:24;93464.09;;;18.40;71.57
7586;BME280;12459;42.646;23.292;2023-05-21T18:26:26;93408.25;;;17.61;74.06
7586;BME280;12459;42.646;23.292;2023-05-21T18:41:30;93159.97;;;16.02;74.05
7586;BME280;12459;42.646;23.292;2023-05-21T18:56:32;93516.75;;;18.15;73.24
7586;BME280;12459;42.646;23.292;2023-05-21T19:11:34;93554.84;;;17.84;76.28
7586;BME280;12459;42.646;23.292;2023-05-21T19:26:37;93439.28;;;16.92;77.77
7586;BME280;12459;42.646;23.292;2023-05-21T19:41:39;93344.03;;;15.95;79.31
7586;BME280;12459;42.646;23.292;2023-05-21T19:56:41;93353.31;;;15.94;78.50
7586;BME280;12459;42.646;23.292;2023-05-21T20:11:43;93432.22;;;16.02;77.38
7586;BME280;12459;42.646;23.292;2023-05-21T20:26:45;93421.50;;;16.73;77.83
7586;BME280;12459;42.646;23.292;2023-05-21T20:41:47;93316.53;;;15.66;84.56
7586;BME280;12459;42.646;23.292;2023-05-21T20:56:48;93402.16;;;15.09;86.81
7586;BME280;12459;42.646;23.292;2023-05-21T21:11:51;93486.75;;;15.87;89.64
7586;BME280;12459;42.646;23.292;2023-05-21T21:26:52;93572.53;;;16.65;89.62
7586;BME280;12459;42.646;23.292;2023-05-21T21:41:54;93303.53;;;14.95;89.06
7586;BME280;12459;42.646;23.292;2023-05-21T21:56:56;93392.34;;;15.37;88.76
7586;BME280;12459;42.646;23.292;2023-05-21T22:11:58;93399.78;;;15.11;93.14
7586;BME280;12459;42.646;23.292;2023-05-21T22:27:00;93358.53;;;15.10;93.73
7586;BME280;12459;42.646;23.292;2023-05-21T22:42:02;93388.94;;;15.23;97.39
7586;BME280;12459;42.646;23.292;2023-05-21T22:57:04;93124.13;;;12.72;100.00
7586;BME280;12459;42.646;23.292;2023-05-21T23:12:06;93394.91;;;14.58;100.00
7586;BME280;12459;42.646;23.292;2023-05-21T23:27:08;93208.16;;;12.60;100.00
7586;BME280;12459;42.646;23.292;2023-05-21T23:42:10;93280.72;;;13.34;100.00
7586;BME280;12459;42.646;23.292;2023-05-21T23:57:12;93358.16;;;13.72;100.00
